Time;durP1;ratioP1;P1;durP2;ratioP2;P2;SDS_P1;SDS_P2;PMS_P1;PMS_P2;Temp;Humidity;BMP_temperature;BMP_pressure;BME280_temperature;BME280_humidity;BME280_pressure;Samples;Min_cycle;Max_cycle;Signal;HPM_P1;HPM_P2
2022/10/24 00:02:07;;;;;;;2.10;1.20;;;17.50;99.90;;;;;;5049685;28;20464;-68
2022/10/24 00:04:36;;;;;;;1.90;1.30;;;17.40;99.90;;;;;;5050276;28;20499;-68
2022/10/24 00:07:05;;;;;;;3.23;1.17;;;17.50;99.90;;;;;;5050288;28;20464;-68
2022/10/24 00:09:32;;;;;;;2.83;1.60;;;17.40;99.90;;;;;;5050352;28;20464;-68
2022/10/24 00:11:59;;;;;;;3.10;1.90;;;17.40;99.90;;;;;;5049808;28;20464;-68
2022/10/24 00:14:26;;;;;;;1.83;1.20;;;17.30;99.90;;;;;;5050284;28;20488;-68
2022/10/24 00:16:53;;;;;;;1.70;1.20;;;17.30;99.90;;;;;;5050305;28;20467;-67
2022/10/24 00:19:20;;;;;;;1.87;0.93;;;17.30;99.90;;;;;;5053899;28;20951;-68
2022/10/24 00:21:47;;;;;;;1.83;1.20;;;17.30;99.90;;;;;;5053555;28;20463;-68
2022/10/24 00:24:15;;;;;;;8.20;1.80;;;17.30;99.90;;;;;;5054183;28;20488;-69
2022/10/24 00:26:42;;;;;;;3.80;1.40;;;17.20;99.90;;;;;;5054670;28;20467;-68
2022/10/24 00:29:09;;;;;;;1.73;1.10;;;17.20;99.90;;;;;;5053892;28;20464;-68
2022/10/24 00:31:36;;;;;;;2.53;1.40;;;17.10;99.90;;;;;;5053630;28;20967;-68
2022/10/24 00:34:05;;;;;;;1.73;1.27;;;17.00;99.90;;;;;;5053799;28;20475;-68
2022/10/24 00:36:32;;;;;;;3.43;2.40;;;17.00;99.90;;;;;;5054060;28;20460;-68
2022/10/24 00:38:59;;;;;;;2.70;2.00;;;17.00;99.90;;;;;;5044609;28;20463;-67
2022/10/24 00:41:29;;;;;;;3.33;1.40;;;16.90;99.90;;;;;;5042323;28;20464;-68
2022/10/24 00:44:21;;;;;;;3.33;2.60;;;16.80;99.90;;;;;;5042391;28;20476;-69
2022/10/24 00:46:51;;;;;;;1.50;1.10;;;16.80;99.90;;;;;;5041103;28;20449;-68
2022/10/24 00:49:22;;;;;;;2.53;1.30;;;16.70;99.90;;;;;;5042309;28;20472;-68
2022/10/24 00:54:20;;;;;;;1.67;1.00;;;16.60;99.90;;;;;;4996273;28;20485;-66
2022/10/24 00:56:56;;;;;;;4.73;1.30;;;16.50;99.90;;;;;;5010303;28;20817;-65
2022/10/24 00:59:24;;;;;;;2.33;1.60;;;16.40;99.90;;;;;;5010770;28;20469;-65
2022/10/24 01:01:51;;;;;;;1.73;1.27;;;16.30;99.90;;;;;;5010674;28;20466;-65
2022/10/24 01:04:18;;;;;;;1.70;1.23;;;16.20;99.90;;;;;;5011306;28;20481;-65
2022/10/24 01:06:50;;;;;;;1.60;1.30;;;16.10;99.90;;;;;;5013677;28;20497;-65
2022/10/24 01:09:41;;;;;;;2.23;1.30;;;16.00;99.90;;;;;;5013245;28;20987;-66
2022/10/24 01:12:22;;;;;;;4.23;1.40;;;16.00;99.90;;;;;;5002623;28;20474;-65
2022/10/24 01:14:59;;;;;;;2.53;1.33;;;15.90;99.90;;;;;;5013472;28;20474;-67
2022/10/24 01:17:33;;;;;;;2.17;1.50;;;15.80;99.90;;;;;;5013370;28;20468;-67
2022/10/24 01:20:29;;;;;;;2.70;1.50;;;15.80;99.90;;;;;;5013234;28;20987;-67
2022/10/24 01:23:07;;;;;;;1.70;1.20;;;15.80;99.90;;;;;;5013356;28;20465;-67
2022/10/24 01:25:44;;;;;;;2.17;1.30;;;15.80;99.90;;;;;;5013628;28;20504;-67
2022/10/24 01:28:17;;;;;;;3.80;1.27;;;15.80;99.90;;;;;;5013477;28;20833;-67
2022/10/24 01:30:49;;;;;;;5.53;1.43;;;15.80;99.90;;;;;;5012519;28;20462;-67
2022/10/24 01:33:22;;;;;;;3.60;2.13;;;15.90;99.90;;;;;;5013040;28;20832;-67
2022/10/24 01:35:53;;;;;;;3.40;1.50;;;15.80;99.90;;;;;;5013585;28;20453;-68
2022/10/24 01:38:26;;;;;;;2.50;1.23;;;15.80;99.90;;;;;;5013586;28;20469;-67
2022/10/24 01:40:56;;;;;;;2.00;1.10;;;15.80;99.90;;;;;;5013417;28;20523;-67
2022/10/24 01:43:27;;;;;;;2.13;1.30;;;15.70;99.90;;;;;;5012897;28;20465;-67
2022/10/24 01:46:01;;;;;;;1.30;1.00;;;15.60;99.90;;;;;;5013304;28;21024;-67
2022/10/24 01:48:31;;;;;;;8.30;2.33;;;15.50;99.90;;;;;;5013318;28;20466;-67
2022/10/24 01:51:01;;;;;;;1.60;1.30;;;15.40;99.90;;;;;;5013061;28;20972;-67
2022/10/24 01:53:29;;;;;;;3.13;1.10;;;15.30;99.90;;;;;;5012624;28;20466;-67
2022/10/24 01:55:58;;;;;;;3.23;1.37;;;15.30;99.90;;;;;;5013100;28;20469;-67
2022/10/24 01:58:25;;;;;;;10.57;1.70;;;15.20;99.90;;;;;;5012838;28;20462;-66
2022/10/24 02:00:58;;;;;;;1.93;1.50;;;15.20;99.90;;;;;;5013011;28;20466;-66
2022/10/24 02:03:30;;;;;;;1.43;1.33;;;15.20;99.90;;;;;;5012262;28;20462;-66
2022/10/24 02:06:02;;;;;;;1.90;1.80;;;15.10;99.90;;;;;;5012849;28;20482;-65
2022/10/24 02:08:37;;;;;;;2.27;1.10;;;15.10;99.90;;;;;;5012794;28;20465;-66
2022/10/24 02:11:07;;;;;;;3.33;1.80;;;15.10;99.90;;;;;;5012674;28;20457;-66
2022/10/24 02:13:41;;;;;;;4.23;3.83;;;15.00;99.90;;;;;;5012538;28;20473;-66
2022/10/24 02:16:09;;;;;;;1.53;1.23;;;15.00;99.90;;;;;;5012628;28;20462;-65
2022/10/24 02:18:37;;;;;;;1.60;1.50;;;15.00;99.90;;;;;;5012761;28;20457;-66
2022/10/24 02:21:12;;;;;;;3.97;1.57;;;15.00;99.90;;;;;;5012518;28;20469;-66
2022/10/24 02:23:45;;;;;;;5.47;1.40;;;14.90;99.90;;;;;;5012491;28;20461;-66
2022/10/24 02:26:18;;;;;;;5.00;1.47;;;14.90;99.90;;;;;;5012347;28;20492;-66
2022/10/24 02:28:47;;;;;;;1.60;1.20;;;14.90;99.90;;;;;;5012471;28;20469;-66
2022/10/24 02:31:20;;;;;;;4.53;1.90;;;14.90;99.90;;;;;;5011803;28;20461;-66
2022/10/24 02:33:49;;;;;;;2.70;1.73;;;15.20;99.90;;;;;;5012447;28;20525;-65
2022/10/24 02:36:21;;;;;;;2.37;1.73;;;15.40;99.90;;;;;;5012214;28;20832;-66
2022/10/24 02:38:50;;;;;;;2.63;1.40;;;15.50;99.90;;;;;;5012376;28;20829;-66
2022/10/24 02:41:20;;;;;;;2.93;1.37;;;15.80;99.90;;;;;;5011320;28;20458;-66
2022/10/24 02:43:50;;;;;;;3.10;2.00;;;15.90;99.90;;;;;;5012410;28;20565;-66
2022/10/24 02:46:20;;;;;;;4.70;1.70;;;16.00;99.90;;;;;;5012294;28;20855;-66
2022/10/24 02:48:51;;;;;;;2.83;1.97;;;16.10;99.90;;;;;;5012094;28;20465;-66
2022/10/24 02:51:20;;;;;;;2.60;1.73;;;16.10;99.90;;;;;;5011444;28;20466;-66
2022/10/24 02:53:47;;;;;;;4.30;2.07;;;16.10;99.90;;;;;;5011885;28;20482;-66
2022/10/24 02:56:13;;;;;;;5.10;2.23;;;16.10;99.90;;;;;;5011857;28;20462;-66
2022/10/24 02:58:40;;;;;;;3.37;2.10;;;16.10;99.90;;;;;;5012080;28;20462;-65
2022/10/24 03:01:07;;;;;;;2.43;1.40;;;16.10;99.90;;;;;;5011687;28;20473;-66
2022/10/24 03:03:35;;;;;;;3.47;1.73;;;16.10;99.90;;;;;;5011571;28;20468;-66
2022/10/24 03:06:02;;;;;;;3.00;1.60;;;16.10;99.90;;;;;;5011778;28;20497;-68
2022/10/24 03:08:29;;;;;;;1.73;1.63;;;16.20;99.90;;;;;;5012192;28;20817;-66
2022/10/24 03:10:56;;;;;;;2.50;1.90;;;16.20;99.90;;;;;;5011677;28;20465;-66
2022/10/24 03:13:22;;;;;;;2.77;1.93;;;16.20;99.90;;;;;;5011131;28;20965;-66
2022/10/24 03:15:49;;;;;;;5.33;1.90;;;16.20;99.90;;;;;;5011804;28;20465;-66
2022/10/24 03:18:16;;;;;;;3.20;2.27;;;16.20;99.90;;;;;;5011541;28;20825;-66
2022/10/24 03:20:45;;;;;;;4.43;2.17;;;16.20;99.90;;;;;;5011587;28;20466;-66
2022/10/24 03:23:12;;;;;;;3.70;2.07;;;16.20;99.90;;;;;;5011071;28;20560;-66
2022/10/24 03:25:38;;;;;;;4.97;2.20;;;16.10;99.90;;;;;;5011404;28;20497;-68
2022/10/24 03:28:05;;;;;;;3.20;1.80;;;16.10;99.90;;;;;;5011430;28;20458;-66
2022/10/24 03:30:32;;;;;;;3.63;2.70;;;16.20;99.90;;;;;;5011589;28;20469;-66
2022/10/24 03:32:59;;;;;;;3.80;1.77;;;16.20;99.90;;;;;;5011172;28;20465;-66
2022/10/24 03:35:26;;;;;;;3.97;2.10;;;16.20;99.90;;;;;;5011221;28;21011;-66
2022/10/24 03:37:54;;;;;;;8.17;2.40;;;16.20;99.90;;;;;;5011513;28;20488;-66
2022/10/24 03:40:23;;;;;;;4.13;1.97;;;16.20;99.90;;;;;;5012475;28;20838;-67
2022/10/24 03:42:50;;;;;;;3.03;1.57;;;16.20;99.90;;;;;;5012911;28;20476;-66
2022/10/24 03:45:17;;;;;;;2.73;1.57;;;16.20;99.90;;;;;;5011055;28;20849;-65
2022/10/24 03:47:43;;;;;;;3.80;1.90;;;16.20;99.90;;;;;;5011556;28;20520;-66
2022/10/24 03:50:10;;;;;;;2.57;1.80;;;16.20;99.90;;;;;;5011242;28;20465;-65
2022/10/24 03:52:37;;;;;;;2.90;1.70;;;16.20;99.90;;;;;;5011610;28;20540;-66
2022/10/24 03:55:06;;;;;;;4.70;2.03;;;16.10;99.90;;;;;;5002093;28;20478;-66
2022/10/24 03:57:33;;;;;;;4.80;2.90;;;16.10;99.90;;;;;;4990146;28;20458;-66
2022/10/24 03:59:59;;;;;;;2.50;1.90;;;16.10;99.90;;;;;;4990065;28;20473;-66
2022/10/24 04:02:26;;;;;;;2.90;1.93;;;16.00;99.90;;;;;;4989159;28;20830;-66
2022/10/24 04:04:53;;;;;;;4.40;2.67;;;16.00;99.90;;;;;;4989559;28;20838;-66
2022/10/24 04:07:20;;;;;;;5.67;2.20;;;16.00;99.90;;;;;;4988754;28;20499;-66
2022/10/24 04:09:47;;;;;;;8.27;2.27;;;16.00;99.90;;;;;;4988990;28;20950;-66
2022/10/24 04:12:15;;;;;;;4.40;2.00;;;16.00;99.90;;;;;;4988917;28;20473;-65
2022/10/24 04:14:42;;;;;;;1.70;1.40;;;16.00;99.90;;;;;;4991268;28;20994;-66
2022/10/24 04:17:09;;;;;;;3.30;1.77;;;15.90;99.90;;;;;;4991245;28;20458;-66
2022/10/24 04:19:35;;;;;;;2.97;2.10;;;15.90;99.90;;;;;;4991189;28;20463;-66
2022/10/24 04:22:02;;;;;;;4.60;2.20;;;15.90;99.90;;;;;;4990513;28;20476;-65
2022/10/24 04:24:29;;;;;;;4.37;2.00;;;15.90;99.90;;;;;;4991074;28;20228;-65
2022/10/24 04:26:55;;;;;;;3.43;2.50;;;15.90;99.90;;;;;;4991296;28;20495;-65
2022/10/24 04:29:24;;;;;;;3.20;2.10;;;15.90;99.90;;;;;;4990928;28;20463;-65
2022/10/24 04:31:50;;;;;;;4.10;1.90;;;16.00;99.90;;;;;;4990881;28;20470;-65
2022/10/24 04:34:17;;;;;;;3.07;1.80;;;16.00;99.90;;;;;;4991155;28;20950;-65
2022/10/24 04:36:44;;;;;;;5.20;2.17;;;16.00;99.90;;;;;;4991406;28;20454;-65
2022/10/24 04:39:11;;;;;;;9.37;1.97;;;16.00;99.90;;;;;;4990859;28;20463;-65
2022/10/24 04:41:38;;;;;;;2.23;1.77;;;16.00;99.90;;;;;;4990824;28;20469;-66
2022/10/24 04:44:05;;;;;;;7.43;2.23;;;16.00;99.90;;;;;;4990981;28;20485;-65
2022/10/24 04:46:33;;;;;;;7.07;1.83;;;16.00;99.90;;;;;;4991009;28;20486;-66
2022/10/24 04:48:59;;;;;;;2.50;1.67;;;16.00;99.90;;;;;;4991377;28;20462;-65
2022/10/24 04:51:26;;;;;;;5.80;2.23;;;16.00;99.90;;;;;;4990520;28;20466;-65
2022/10/24 04:53:53;;;;;;;6.23;2.13;;;16.00;99.90;;;;;;4990927;28;20517;-65
2022/10/24 04:56:20;;;;;;;3.03;1.70;;;16.00;99.90;;;;;;4990996;28;20462;-65
2022/10/24 04:58:47;;;;;;;6.70;1.93;;;16.00;99.90;;;;;;4990899;28;20470;-65
2022/10/24 05:01:14;;;;;;;5.73;1.90;;;16.00;99.90;;;;;;4990394;28;20463;-65
2022/10/24 05:03:42;;;;;;;2.37;1.53;;;16.10;99.90;;;;;;4991659;28;20991;-65
2022/10/24 05:06:09;;;;;;;2.53;1.93;;;16.10;99.90;;;;;;4994265;28;20493;-66
2022/10/24 05:08:36;;;;;;;2.20;1.67;;;16.10;99.90;;;;;;4994466;28;20892;-65
2022/10/24 05:11:03;;;;;;;4.00;2.03;;;16.10;99.90;;;;;;4994224;28;20977;-65
2022/10/24 05:13:30;;;;;;;1.70;1.60;;;16.20;99.90;;;;;;4994132;28;20840;-65
2022/10/24 05:15:56;;;;;;;2.60;1.70;;;16.20;99.90;;;;;;4994459;28;20473;-65
2022/10/24 05:18:23;;;;;;;6.00;1.80;;;16.30;99.90;;;;;;4994214;28;20459;-65
2022/10/24 05:20:55;;;;;;;3.13;1.70;;;16.30;99.90;;;;;;4994062;28;20974;-65
2022/10/24 05:23:21;;;;;;;3.20;1.90;;;16.30;99.90;;;;;;4993451;28;20474;-67
2022/10/24 05:25:48;;;;;;;2.20;1.57;;;16.30;99.90;;;;;;4993969;28;20968;-67
2022/10/24 05:28:15;;;;;;;2.60;1.50;;;16.30;99.90;;;;;;4993934;28;20550;-69
2022/10/24 05:30:43;;;;;;;2.10;1.53;;;16.30;99.90;;;;;;4994030;28;20844;-67
2022/10/24 05:33:10;;;;;;;3.97;1.50;;;16.30;99.90;;;;;;4993294;28;20469;-65
2022/10/24 05:35:36;;;;;;;5.20;1.77;;;16.30;99.90;;;;;;4993889;28;20487;-65
2022/10/24 05:38:05;;;;;;;4.57;1.77;;;16.30;99.90;;;;;;4993805;28;20458;-65
2022/10/24 05:40:31;;;;;;;2.77;1.70;;;16.30;99.90;;;;;;4993773;28;20990;-66
2022/10/24 05:42:58;;;;;;;1.97;1.43;;;16.30;99.90;;;;;;4993436;28;20467;-65
2022/10/24 05:45:25;;;;;;;2.03;1.63;;;16.30;99.90;;;;;;4993644;28;20489;-66
2022/10/24 05:47:52;;;;;;;3.13;1.70;;;16.30;99.90;;;;;;4993826;28;20486;-66
2022/10/24 05:50:19;;;;;;;2.80;1.33;;;16.20;99.90;;;;;;4993469;28;20494;-65
2022/10/24 05:52:45;;;;;;;3.10;1.40;;;16.20;99.90;;;;;;4993023;28;20505;-65
2022/10/24 05:55:13;;;;;;;2.13;1.93;;;16.20;99.90;;;;;;4993379;28;20554;-65
2022/10/24 05:57:40;;;;;;;1.93;1.63;;;16.20;99.90;;;;;;4993724;28;20852;-66
2022/10/24 06:00:11;;;;;;;2.03;1.77;;;16.20;99.90;;;;;;4993288;28;20476;-65
2022/10/24 06:02:38;;;;;;;4.33;2.07;;;16.20;99.90;;;;;;4993029;28;20466;-65
2022/10/24 06:05:05;;;;;;;2.63;1.90;;;16.20;99.90;;;;;;4993287;28;20478;-66
2022/10/24 06:07:32;;;;;;;2.27;2.03;;;16.10;99.90;;;;;;4993317;28;20509;-65
2022/10/24 06:09:59;;;;;;;3.27;1.43;;;16.10;99.90;;;;;;4993312;28;20459;-65
2022/10/24 06:12:27;;;;;;;1.73;1.30;;;16.10;99.90;;;;;;4992760;28;20489;-65
2022/10/24 06:14:55;;;;;;;2.10;1.30;;;16.10;99.90;;;;;;4993260;28;20486;-66
2022/10/24 06:17:22;;;;;;;2.07;1.30;;;16.10;99.90;;;;;;4992788;28;20463;-65
2022/10/24 06:19:49;;;;;;;3.70;1.73;;;16.10;99.90;;;;;;4993210;28;20478;-65
2022/10/24 06:22:17;;;;;;;2.77;1.53;;;16.10;99.90;;;;;;4992443;28;20470;-66
2022/10/24 06:24:44;;;;;;;4.63;1.50;;;16.10;99.90;;;;;;4993273;28;20512;-65
2022/10/24 06:27:10;;;;;;;4.43;2.13;;;16.10;99.90;;;;;;4992794;28;20486;-66
2022/10/24 06:29:39;;;;;;;2.27;1.50;;;16.10;99.90;;;;;;4992792;28;21005;-66
2022/10/24 06:32:05;;;;;;;3.20;2.00;;;16.10;99.90;;;;;;4992340;28;20466;-66
2022/10/24 06:34:34;;;;;;;1.90;1.60;;;16.10;99.90;;;;;;4992711;28;20467;-66
2022/10/24 06:37:01;;;;;;;2.73;1.60;;;16.00;99.90;;;;;;4992753;28;20467;-65
2022/10/24 06:39:28;;;;;;;3.80;1.90;;;16.10;99.90;;;;;;4992618;28;20462;-65
2022/10/24 06:41:54;;;;;;;2.70;1.60;;;16.10;99.90;;;;;;4992239;28;20469;-65
2022/10/24 06:44:21;;;;;;;2.40;1.60;;;16.00;99.90;;;;;;4992527;28;20489;-65
2022/10/24 06:46:49;;;;;;;2.53;1.70;;;15.90;99.90;;;;;;4992667;28;20842;-65
2022/10/24 06:49:16;;;;;;;5.17;1.50;;;15.90;99.90;;;;;;4992462;28;20467;-65
2022/10/24 06:51:43;;;;;;;2.80;1.80;;;15.90;99.90;;;;;;4992076;28;20837;-64
2022/10/24 06:54:10;;;;;;;3.67;2.10;;;15.90;99.90;;;;;;5082675;23;20489;-68
2022/10/24 06:56:36;;;;;;;2.93;1.73;;;15.80;99.90;;;;;;5011999;28;20544;-67
2022/10/24 06:59:08;;;;;;;5.27;1.83;;;15.90;99.90;;;;;;5012333;28;20468;-67
2022/10/24 07:01:35;;;;;;;2.50;2.00;;;15.80;99.90;;;;;;5011647;28;20461;-68
2022/10/24 07:04:04;;;;;;;2.23;1.70;;;15.80;99.90;;;;;;5012074;28;21027;-67
2022/10/24 07:06:32;;;;;;;3.70;1.53;;;15.90;99.90;;;;;;5011896;28;20464;-68
2022/10/24 07:09:00;;;;;;;4.53;1.80;;;15.90;99.90;;;;;;5012080;28;20469;-67
2022/10/24 07:11:27;;;;;;;2.20;1.40;;;15.90;99.90;;;;;;5011600;28;20469;-67
2022/10/24 07:13:54;;;;;;;3.30;1.83;;;15.90;99.90;;;;;;5011800;28;20555;-67
2022/10/24 07:16:21;;;;;;;2.83;1.63;;;16.00;99.90;;;;;;5012139;28;20473;-67
2022/10/24 07:18:48;;;;;;;3.40;1.73;;;16.00;99.90;;;;;;5011937;28;20837;-68
2022/10/24 07:21:19;;;;;;;1.97;1.50;;;16.00;99.90;;;;;;5011403;28;20985;-67
2022/10/24 07:23:46;;;;;;;4.00;2.07;;;16.00;99.90;;;;;;5011571;28;20478;-68
2022/10/24 07:26:15;;;;;;;3.10;1.73;;;16.00;99.90;;;;;;5014055;28;20987;-68
2022/10/24 07:28:45;;;;;;;4.00;2.00;;;16.00;99.90;;;;;;5027928;28;20485;-67
2022/10/24 07:31:13;;;;;;;2.80;1.73;;;16.00;99.90;;;;;;5029358;28;20544;-67
2022/10/24 07:33:42;;;;;;;4.67;1.80;;;16.00;99.90;;;;;;5029260;28;20493;-67
2022/10/24 07:36:09;;;;;;;3.30;1.70;;;16.00;99.90;;;;;;5030031;28;20933;-67
2022/10/24 07:38:38;;;;;;;6.50;4.60;;;15.90;99.90;;;;;;5029998;28;20883;-67
2022/10/24 07:41:05;;;;;;;3.37;1.57;;;15.90;99.90;;;;;;5027677;28;20956;-67
2022/10/24 07:43:32;;;;;;;4.60;1.80;;;15.80;99.90;;;;;;5030017;28;20464;-66
2022/10/24 07:45:59;;;;;;;2.60;1.47;;;15.80;99.90;;;;;;5030891;28;20472;-67
2022/10/24 07:48:26;;;;;;;4.40;2.00;;;15.80;99.90;;;;;;5030574;28;20480;-67
2022/10/24 07:50:53;;;;;;;1.40;1.30;;;15.70;99.90;;;;;;5030316;28;20545;-67
2022/10/24 07:53:20;;;;;;;2.50;1.80;;;15.80;99.90;;;;;;5030512;28;20972;-67
2022/10/24 07:55:48;;;;;;;3.30;2.07;;;15.80;99.90;;;;;;5029688;28;20476;-67
2022/10/24 07:58:14;;;;;;;2.60;1.43;;;15.70;99.90;;;;;;5030834;28;20457;-67
2022/10/24 08:00:41;;;;;;;5.67;1.53;;;15.60;99.90;;;;;;5030601;28;20468;-67
2022/10/24 08:03:08;;;;;;;6.30;1.70;;;15.60;99.90;;;;;;5029940;28;20464;-67
2022/10/24 08:05:35;;;;;;;2.90;1.60;;;15.60;99.90;;;;;;5029856;28;20481;-67
2022/10/24 08:08:01;;;;;;;6.57;1.70;;;15.60;99.90;;;;;;5030338;28;20481;-67
2022/10/24 08:10:28;;;;;;;2.00;1.73;;;15.50;99.90;;;;;;5030103;28;20464;-67
2022/10/24 08:12:56;;;;;;;2.03;1.37;;;15.40;99.90;;;;;;5029820;28;20461;-67
2022/10/24 08:15:24;;;;;;;3.00;1.47;;;15.30;99.90;;;;;;5030607;28;20913;-67
2022/10/24 08:17:51;;;;;;;1.70;1.47;;;15.20;99.90;;;;;;5029990;28;21014;-66
2022/10/24 08:20:18;;;;;;;4.23;1.60;;;15.30;99.90;;;;;;5030026;28;20461;-67
2022/10/24 08:22:45;;;;;;;3.10;1.70;;;15.30;99.90;;;;;;5029594;28;20833;-67
2022/10/24 08:25:13;;;;;;;4.20;2.20;;;15.30;99.90;;;;;;5029845;28;20484;-67
2022/10/24 08:27:40;;;;;;;2.53;1.73;;;15.30;99.90;;;;;;5030153;28;20539;-66
2022/10/24 08:30:09;;;;;;;3.13;1.73;;;15.30;99.90;;;;;;5030401;28;20464;-67
2022/10/24 08:32:37;;;;;;;4.93;1.83;;;15.30;99.90;;;;;;5028882;28;20475;-67
2022/10/24 08:35:04;;;;;;;2.50;1.83;;;15.30;99.90;;;;;;5030160;28;20488;-66
2022/10/24 08:37:30;;;;;;;2.70;1.83;;;15.40;99.90;;;;;;5030308;28;20460;-67
2022/10/24 08:39:57;;;;;;;3.20;1.63;;;15.40;99.90;;;;;;5032444;28;20465;-66
2022/10/24 08:42:25;;;;;;;3.60;2.07;;;15.40;99.90;;;;;;5033512;28;20817;-66
2022/10/24 08:44:52;;;;;;;3.80;1.30;;;15.40;99.90;;;;;;5033148;28;20837;-66
2022/10/24 08:47:31;;;;;;;3.73;1.50;;;15.40;99.90;;;;;;5033725;28;20487;-67
2022/10/24 08:50:03;;;;;;;2.60;2.10;;;15.30;99.90;;;;;;5033765;28;20472;-67
2022/10/24 08:52:35;;;;;;;2.33;1.80;;;15.30;99.90;;;;;;5033676;28;20505;-67
2022/10/24 08:55:08;;;;;;;2.60;2.00;;;15.30;99.90;;;;;;5032251;28;20988;-67
2022/10/24 08:57:35;;;;;;;2.40;1.60;;;15.30;99.90;;;;;;5032240;28;20460;-67
2022/10/24 09:00:08;;;;;;;2.40;1.70;;;15.40;99.90;;;;;;5032944;28;20835;-67
2022/10/24 09:02:38;;;;;;;2.20;1.33;;;15.30;99.90;;;;;;5031431;28;20875;-67
2022/10/24 09:05:19;;;;;;;2.60;1.63;;;15.20;99.90;;;;;;5032402;28;20579;-67
2022/10/24 09:07:47;;;;;;;3.43;1.57;;;15.20;99.90;;;;;;5032070;28;20488;-67
2022/10/24 09:10:18;;;;;;;1.70;1.60;;;15.10;99.90;;;;;;5032134;28;20465;-67
2022/10/24 09:12:45;;;;;;;2.10;1.67;;;15.10;99.90;;;;;;5031546;28;20837;-67
2022/10/24 09:15:17;;;;;;;2.30;1.90;;;15.10;99.90;;;;;;5031529;28;20484;-66
2022/10/24 09:17:46;;;;;;;3.60;1.53;;;15.20;99.90;;;;;;5032055;28;20767;-67
2022/10/24 09:20:21;;;;;;;3.13;2.80;;;15.20;99.90;;;;;;5032135;28;20465;-66
2022/10/24 09:22:48;;;;;;;3.10;1.90;;;15.20;99.90;;;;;;5030459;28;20457;-67
2022/10/24 09:25:16;;;;;;;2.97;1.73;;;15.20;99.90;;;;;;5032009;28;20504;-67
2022/10/24 09:27:44;;;;;;;2.97;1.77;;;15.30;99.90;;;;;;5031584;28;20863;-66
2022/10/24 09:30:17;;;;;;;3.03;2.30;;;15.30;99.90;;;;;;5031547;28;20472;-67
2022/10/24 09:32:46;;;;;;;3.20;1.77;;;15.30;99.90;;;;;;5031084;28;20465;-67
2022/10/24 09:35:17;;;;;;;3.30;1.40;;;15.40;99.90;;;;;;5031312;28;20480;-67
2022/10/24 09:37:47;;;;;;;3.00;2.00;;;15.40;99.90;;;;;;5031169;28;20465;-67
2022/10/24 09:40:22;;;;;;;3.10;2.13;;;15.40;99.90;;;;;;5031720;28;20465;-67
2022/10/24 09:42:54;;;;;;;1.73;1.47;;;15.40;99.90;;;;;;5031722;28;20523;-66
2022/10/24 09:45:30;;;;;;;2.10;1.57;;;15.40;99.90;;;;;;5031909;28;20495;-67
2022/10/24 09:48:01;;;;;;;2.50;1.63;;;15.50;99.90;;;;;;5031577;28;20560;-66
2022/10/24 09:50:28;;;;;;;1.97;1.60;;;15.50;99.90;;;;;;5031303;28;20464;-67
2022/10/24 09:52:58;;;;;;;2.30;2.03;;;15.60;99.90;;;;;;4995279;28;1035508;-68
2022/10/24 09:55:27;;;;;;;2.47;1.60;;;15.60;99.90;;;;;;5032835;28;20234;-68
2022/10/24 09:57:56;;;;;;;2.67;1.80;;;15.60;99.90;;;;;;5032699;28;20522;-68
2022/10/24 10:00:26;;;;;;;3.50;1.73;;;15.50;99.90;;;;;;5032196;28;20465;-67
2022/10/24 10:03:03;;;;;;;2.17;1.50;;;15.50;99.90;;;;;;5032236;28;20464;-68
2022/10/24 10:05:43;;;;;;;2.97;1.43;;;15.50;99.90;;;;;;5032555;28;20488;-68
2022/10/24 10:08:16;;;;;;;1.83;1.50;;;15.50;99.90;;;;;;5032761;28;20500;-67
2022/10/24 10:10:42;;;;;;;3.63;1.43;;;15.50;99.90;;;;;;5032441;28;20457;-68
2022/10/24 10:13:23;;;;;;;3.50;1.30;;;15.50;99.90;;;;;;5031959;28;20940;-67
2022/10/24 10:15:52;;;;;;;2.60;1.53;;;15.60;99.90;;;;;;5032314;28;20519;-68
2022/10/24 10:18:33;;;;;;;2.20;1.60;;;15.50;99.90;;;;;;5032837;28;20487;-67
2022/10/24 10:21:05;;;;;;;2.30;1.60;;;15.50;99.90;;;;;;5032495;28;20465;-67
2022/10/24 10:23:35;;;;;;;1.67;1.33;;;15.50;99.90;;;;;;5031796;28;20473;-68
2022/10/24 10:26:13;;;;;;;4.83;2.43;;;15.60;99.90;;;;;;5031800;28;20492;-67
2022/10/24 10:28:45;;;;;;;2.80;1.50;;;15.60;99.90;;;;;;5032149;28;20484;-67
2022/10/24 10:31:12;;;;;;;2.00;1.80;;;15.70;99.90;;;;;;5031394;28;20956;-66
2022/10/24 10:33:49;;;;;;;2.17;1.30;;;15.70;99.90;;;;;;5031913;28;20468;-67
2022/10/24 10:36:20;;;;;;;1.90;1.67;;;15.70;99.90;;;;;;5032011;28;20464;-68
2022/10/24 10:38:51;;;;;;;3.00;1.57;;;15.70;99.90;;;;;;5031779;28;20464;-68
2022/10/24 10:41:33;;;;;;;2.63;1.40;;;15.70;99.90;;;;;;5031685;28;20483;-68
2022/10/24 10:44:15;;;;;;;1.23;1.13;;;15.80;99.90;;;;;;5031892;28;20481;-67
2022/10/24 10:46:52;;;;;;;2.53;1.57;;;15.80;99.90;;;;;;5031745;28;20538;-68
2022/10/24 10:49:27;;;;;;;2.00;1.40;;;15.80;99.90;;;;;;5031619;28;20870;-68
2022/10/24 10:51:58;;;;;;;1.60;1.20;;;15.80;99.90;;;;;;5031225;28;20464;-68
2022/10/24 10:54:41;;;;;;;1.73;1.30;;;15.80;99.90;;;;;;5031614;28;20500;-67
2022/10/24 10:57:11;;;;;;;1.60;1.33;;;15.80;99.90;;;;;;5031892;28;20484;-67
2022/10/24 10:59:47;;;;;;;1.70;1.23;;;15.80;99.90;;;;;;5031179;28;20461;-67
2022/10/24 11:02:39;;;;;;;2.60;1.70;;;15.80;99.90;;;;;;5030980;28;20471;-68
2022/10/24 11:05:25;;;;;;;3.03;1.27;;;15.70;99.90;;;;;;5031497;28;20481;-67
2022/10/24 11:08:03;;;;;;;2.70;1.20;;;15.70;99.90;;;;;;5031149;28;20846;-67
2022/10/24 11:10:35;;;;;;;4.80;1.60;;;15.70;99.90;;;;;;5031719;28;20578;-68
2022/10/24 11:13:06;;;;;;;1.40;1.13;;;15.70;99.90;;;;;;5031085;28;20845;-68
2022/10/24 11:15:35;;;;;;;2.47;1.73;;;15.70;99.90;;;;;;5030721;28;20491;-67
2022/10/24 11:18:10;;;;;;;1.90;1.20;;;15.70;99.90;;;;;;5031541;28;20468;-67
2022/10/24 11:20:44;;;;;;;1.53;1.10;;;15.60;99.90;;;;;;5031360;28;20828;-67
2022/10/24 11:23:18;;;;;;;1.60;1.23;;;15.70;99.90;;;;;;5030652;28;20465;-67
2022/10/24 11:25:50;;;;;;;3.20;1.50;;;15.70;99.90;;;;;;5030963;28;20484;-67
2022/10/24 11:28:21;;;;;;;1.33;1.00;;;15.70;99.90;;;;;;5031267;28;20511;-67
2022/10/24 11:30:53;;;;;;;1.90;1.20;;;15.70;99.90;;;;;;5012843;28;20466;-67
2022/10/24 11:33:23;;;;;;;1.97;1.20;;;15.70;99.90;;;;;;5010923;28;20465;-68
2022/10/24 11:36:15;;;;;;;3.03;1.40;;;15.60;99.90;;;;;;5010393;28;20486;-68
2022/10/24 11:38:48;;;;;;;2.23;1.37;;;15.70;99.90;;;;;;5006158;28;20454;-67
2022/10/24 11:41:28;;;;;;;4.27;2.00;;;15.70;99.90;;;;;;5010501;28;20465;-67
2022/10/24 11:43:59;;;;;;;2.67;1.43;;;15.70;99.90;;;;;;5010186;28;20477;-68
2022/10/24 11:46:34;;;;;;;1.90;1.70;;;15.70;99.90;;;;;;5010054;28;20469;-68
2022/10/24 11:49:08;;;;;;;2.53;1.07;;;15.70;99.90;;;;;;5011092;28;20486;-67
2022/10/24 11:51:41;;;;;;;1.80;1.37;;;15.70;99.90;;;;;;5010009;28;20458;-67
2022/10/24 11:54:16;;;;;;;1.53;1.10;;;15.80;99.90;;;;;;5011245;28;20500;-67
2022/10/24 11:56:47;;;;;;;1.70;1.43;;;15.70;99.90;;;;;;5010861;28;20465;-67
2022/10/24 11:59:20;;;;;;;1.53;1.10;;;15.70;99.90;;;;;;5011094;28;20461;-68
2022/10/24 12:02:31;;;;;;;1.97;1.30;;;15.70;99.90;;;;;;5010685;28;20464;-68
2022/10/24 12:05:20;;;;;;;1.63;1.00;;;15.70;99.90;;;;;;5010571;28;20485;-68
2022/10/24 12:08:20;;;;;;;2.80;1.37;;;15.80;99.90;;;;;;5010997;28;20462;-68
2022/10/24 12:11:05;;;;;;;2.80;1.20;;;15.70;99.90;;;;;;5005186;28;20473;-68
2022/10/24 12:14:12;;;;;;;4.33;1.23;;;15.80;99.90;;;;;;5011143;28;20469;-67
2022/10/24 12:16:51;;;;;;;2.37;2.17;;;15.80;99.90;;;;;;5023548;28;20464;-68
2022/10/24 12:19:19;;;;;;;2.13;1.20;;;15.70;99.90;;;;;;5034506;28;20463;-68
2022/10/24 12:21:50;;;;;;;3.13;1.10;;;15.80;99.90;;;;;;5033319;28;20460;-67
2022/10/24 12:24:26;;;;;;;1.40;1.10;;;15.80;99.90;;;;;;5033695;28;20480;-67
2022/10/24 12:27:01;;;;;;;1.13;0.97;;;15.80;99.90;;;;;;5034220;28;20460;-68
2022/10/24 12:29:30;;;;;;;1.40;1.00;;;15.80;99.90;;;;;;5033492;28;21006;-68
2022/10/24 12:31:58;;;;;;;1.20;1.00;;;15.80;99.90;;;;;;5033848;28;20488;-67
2022/10/24 12:34:44;;;;;;;1.20;0.90;;;15.70;99.90;;;;;;5034402;28;20476;-67
2022/10/24 12:37:27;;;;;;;1.33;1.10;;;15.80;99.90;;;;;;5034032;28;20468;-67
2022/10/24 12:39:54;;;;;;;2.20;1.10;;;15.80;99.90;;;;;;5033692;28;20456;-67
2022/10/24 12:43:14;;;;;;;1.27;1.03;;;15.80;99.90;;;;;;5033015;28;20467;-68
2022/10/24 12:45:41;;;;;;;1.93;1.23;;;15.80;99.90;;;;;;5033305;28;20504;-67
2022/10/24 12:48:35;;;;;;;1.63;0.90;;;15.70;99.90;;;;;;5033905;28;20464;-67
2022/10/24 12:51:21;;;;;;;1.00;0.90;;;15.80;99.90;;;;;;5033517;28;20469;-68
2022/10/24 12:54:05;;;;;;;1.30;1.00;;;15.80;99.90;;;;;;5032850;28;20496;-67
2022/10/24 12:56:33;;;;;;;1.20;1.10;;;15.80;99.90;;;;;;5033690;28;20996;-68
2022/10/24 12:59:04;;;;;;;1.37;1.10;;;15.80;99.90;;;;;;5033053;28;20457;-67
2022/10/24 13:01:33;;;;;;;2.53;1.40;;;15.90;99.90;;;;;;5033165;28;20472;-67
2022/10/24 13:04:44;;;;;;;1.57;1.10;;;16.00;99.90;;;;;;5033248;28;20487;-68
2022/10/24 13:07:45;;;;;;;1.00;0.90;;;16.00;99.90;;;;;;5031412;28;20461;-68